Terminal Aerodrome Forecast
Issued by NWS Rapid City, SD

Home | Current Version | Previous Version | Graphics & Text | Print | Product List | Glossary On
Versions: 1 2 3 4 5 6 7 8 9 10 11 12 13 14 15 16 17
000
FTUS43 KUNR 111120
TAFRAP
TAF
KRAP 111120Z 1112/1212 33034G50KT P6SM BKN200
     FM111800 33032G44KT P6SM BKN200
     FM112200 34020G30KT P6SM SCT250
     FM120200 31010KT P6SM SCT250=

USA.gov is the U.S. government's official web portal to all federal, state and local government web resources and services.